Time;durP1;ratioP1;P1;durP2;ratioP2;P2;SDS_P1;SDS_P2;PMS_P1;PMS_P2;Temp;Humidity;BMP_temperature;BMP_pressure;BME280_temperature;BME280_humidity;BME280_pressure;Samples;Min_cycle;Max_cycle;Signal;HPM_P1;HPM_P2
2023/01/26 00:01:10;;;;;;;;;;;;;;;;;;5050604;28;2108;-45
2023/01/26 00:03:37;;;;;;;;;;;;;;;;;;5053964;28;1440;-44
2023/01/26 00:06:04;;;;;;;;;;;;;;;;;;5054554;28;2306;-44
2023/01/26 00:08:38;;;;;;;;;;;;;;;;;;5054577;28;1836;-43
2023/01/26 00:11:07;;;;;;;;;;;;;;;;;;5054483;28;2216;-44
2023/01/26 00:13:34;;;;;;;;;;;;;;;;;;5036629;28;2522;-45
2023/01/26 00:16:02;;;;;;;;;;;;;;;;;;5054489;28;1701;-43
2023/01/26 00:18:31;;;;;;;;;;;;;;;;;;5054198;28;2004;-43
2023/01/26 00:20:59;;;;;;;;;;;;;;;;;;5054390;28;1591;-43
2023/01/26 00:23:27;;;;;;;;;;;;;;;;;;5054093;28;2275;-42
2023/01/26 00:25:54;;;;;;;;;;;;;;;;;;5054521;28;1863;-41
2023/01/26 00:28:21;;;;;;;;;;;;;;;;;;5036727;28;1986;-47
2023/01/26 00:30:49;;;;;;;;;;;;;;;;;;5034094;28;1729;-43
2023/01/26 00:33:16;;;;;;;;;;;;;;;;;;5034321;28;2286;-42
2023/01/26 00:35:43;;;;;;;;;;;;;;;;;;5034220;28;1603;-42
2023/01/26 00:38:13;;;;;;;;;;;;;;;;;;5033856;28;1914;-42
2023/01/26 00:40:40;;;;;;;;;;;;;;;;;;5016174;28;2111;-44
2023/01/26 00:43:07;;;;;;;;;;;;;;;;;;5033804;28;2151;-44
2023/01/26 00:45:35;;;;;;;;;;;;;;;;;;5015981;28;2152;-44
2023/01/26 00:48:04;;;;;;;;;;;;;;;;;;5016086;28;1431;-48
2023/01/26 00:50:32;;;;;;;;;;;;;;;;;;5033693;28;1991;-45
2023/01/26 00:52:59;;;;;;;;;;;;;;;;;;5033667;28;2222;-45
2023/01/26 00:55:31;;;;;;;;;;;;;;;;;;5015920;28;1710;-44
2023/01/26 00:58:03;;;;;;;;;;;;;;;;;;5015927;28;1969;-46
2023/01/26 01:00:30;;;;;;;;;;;;;;;;;;5033659;28;1407;-41
2023/01/26 01:02:58;;;;;;;;;;;;;;;;;;5033492;28;2143;-44
2023/01/26 01:05:26;;;;;;;;;;;;;;;;;;5033548;28;1841;-41
2023/01/26 01:07:53;;;;;;;;;;;;;;;;;;5015436;28;1947;-44
2023/01/26 01:10:21;;;;;;;;;;;;;;;;;;5033551;28;2205;-43
2023/01/26 01:12:48;;;;;;;;;;;;;;;;;;5015852;28;1451;-46
2023/01/26 01:15:15;;;;;;;;;;;;;;;;;;5032995;28;1633;-43
2023/01/26 01:17:42;;;;;;;;;;;;;;;;;;5033188;28;1670;-41
2023/01/26 01:20:10;;;;;;;;;;;;;;;;;;5015587;28;2067;-44
2023/01/26 01:22:40;;;;;;;;;;;;;;;;;;5015376;28;1629;-44
2023/01/26 01:25:07;;;;;;;;;;;;;;;;;;5033054;28;1779;-47
2023/01/26 01:27:34;;;;;;;;;;;;;;;;;;5025770;28;1732;-44
2023/01/26 01:30:06;;;;;;;;;;;;;;;;;;5053052;28;1748;-45
2023/01/26 01:32:34;;;;;;;;;;;;;;;;;;5052796;28;1658;-43
2023/01/26 01:35:02;;;;;;;;;;;;;;;;;;5034928;28;1982;-45
2023/01/26 01:37:30;;;;;;;;;;;;;;;;;;5052993;28;2142;-45
2023/01/26 01:39:57;;;;;;;;;;;;;;;;;;5052768;28;1978;-45
2023/01/26 01:42:25;;;;;;;;;;;;;;;;;;5052769;28;1939;-45
2023/01/26 01:45:11;;;;;;;;;;;;;;;;;;5052568;28;2182;-44
2023/01/26 01:47:38;;;;;;;;;;;;;;;;;;5052759;28;1871;-43
2023/01/26 01:50:11;;;;;;;;;;;;;;;;;;5052924;28;2057;-45
2023/01/26 01:52:38;;;;;;;;;;;;;;;;;;5034800;28;2298;-50
2023/01/26 01:55:07;;;;;;;;;;;;;;;;;;5052476;28;1876;-42
2023/01/26 01:57:54;;;;;;;;;;;;;;;;;;5034550;28;2026;-46
2023/01/26 02:00:22;;;;;;;;;;;;;;;;;;5052484;28;1914;-40
2023/01/26 02:05:47;;;;;;;;;;;;;;;;;;5052275;28;1825;-45
2023/01/26 02:08:16;;;;;;;;;;;;;;;;;;5052290;28;1749;-41
2023/01/26 02:10:45;;;;;;;;;;;;;;;;;;5034234;28;1460;-43
2023/01/26 02:13:12;;;;;;;;;;;;;;;;;;5052276;28;2199;-45
2023/01/26 02:15:41;;;;;;;;;;;;;;;;;;5052231;28;1464;-45
2023/01/26 02:18:10;;;;;;;;;;;;;;;;;;5034124;28;1959;-43
2023/01/26 02:20:40;;;;;;;;;;;;;;;;;;5034181;28;1903;-42
2023/01/26 02:23:17;;;;;;;;;;;;;;;;;;5051897;28;2222;-42
2023/01/26 02:25:53;;;;;;;;;;;;;;;;;;5051178;28;1873;-43
2023/01/26 02:28:23;;;;;;;;;;;;;;;;;;5016846;28;1871;-42
2023/01/26 02:30:51;;;;;;;;;;;;;;;;;;5032013;28;2256;-43
2023/01/26 02:33:20;;;;;;;;;;;;;;;;;;5031804;28;2105;-43
2023/01/26 02:35:47;;;;;;;;;;;;;;;;;;5014040;28;2121;-45
2023/01/26 02:38:16;;;;;;;;;;;;;;;;;;5014258;28;1639;-43
2023/01/26 02:40:47;;;;;;;;;;;;;;;;;;5031654;28;2165;-45
2023/01/26 02:43:15;;;;;;;;;;;;;;;;;;5014079;28;1728;-42
2023/01/26 02:45:42;;;;;;;;;;;;;;;;;;5013962;28;2001;-41
2023/01/26 02:48:09;;;;;;;;;;;;;;;;;;5031848;28;1818;-43
2023/01/26 02:50:38;;;;;;;;;;;;;;;;;;5031485;28;1948;-43
2023/01/26 02:53:06;;;;;;;;;;;;;;;;;;5031809;28;1664;-43
2023/01/26 02:55:33;;;;;;;;;;;;;;;;;;5031278;28;2098;-43
2023/01/26 02:58:02;;;;;;;;;;;;;;;;;;5031586;28;2038;-43
2023/01/26 03:00:36;;;;;;;;;;;;;;;;;;5031309;28;1910;-43
2023/01/26 03:03:08;;;;;;;;;;;;;;;;;;5031494;28;1791;-43
2023/01/26 03:05:35;;;;;;;;;;;;;;;;;;5031501;28;1487;-43
2023/01/26 03:08:04;;;;;;;;;;;;;;;;;;5013655;28;1878;-42
2023/01/26 03:10:35;;;;;;;;;;;;;;;;;;5013632;28;1888;-44
2023/01/26 03:13:05;;;;;;;;;;;;;;;;;;5031647;28;2071;-42
2023/01/26 03:29:33;;;;;;;;;;;;;;;;;;5050904;28;1973;-42
2023/01/26 03:32:01;;;;;;;;;;;;;;;;;;5051004;28;1716;-43
2023/01/26 03:34:28;;;;;;;;;;;;;;;;;;5032694;28;1770;-42
2023/01/26 03:36:56;;;;;;;;;;;;;;;;;;5052304;28;2352;-43
2023/01/26 03:56:16;;;;;;;;;;;;;;;;;;5039350;28;1985;-45
2023/01/26 03:58:46;;;;;;;;;;;;;;;;;;5039258;28;1967;-42
2023/01/26 04:01:18;;;;;;;;;;;;;;;;;;5039495;28;1500;-43
2023/01/26 04:09:23;;;;;;;;;;;;;;;;;;5036058;28;1854;-40
2023/01/26 04:11:50;;;;;;;;;;;;;;;;;;5052823;28;2262;-45
2023/01/26 04:22:50;;;;;;;;;;;;;;;;;;5019550;28;1563;-43
2023/01/26 04:25:18;;;;;;;;;;;;;;;;;;5020227;28;2104;-42
2023/01/26 04:27:46;;;;;;;;;;;;;;;;;;5048498;28;1990;-42
2023/01/26 04:30:14;;;;;;;;;;;;;;;;;;5072498;28;1861;-45
2023/01/26 04:32:42;;;;;;;;;;;;;;;;;;5055774;28;2157;-46
2023/01/26 04:35:10;;;;;;;;;;;;;;;;;;5056003;28;1752;-45
2023/01/26 04:37:38;;;;;;;;;;;;;;;;;;5056813;28;1760;-42
2023/01/26 04:40:05;;;;;;;;;;;;;;;;;;5055874;28;2080;-44
2023/01/26 04:42:34;;;;;;;;;;;;;;;;;;5055690;28;1862;-43
2023/01/26 04:45:03;;;;;;;;;;;;;;;;;;5055845;28;1930;-41
2023/01/26 04:47:31;;;;;;;;;;;;;;;;;;5057046;28;2287;-45
2023/01/26 04:49:58;;;;;;;;;;;;;;;;;;5052386;28;1288;-43
2023/01/26 04:52:25;;;;;;;;;;;;;;;;;;5053935;28;1818;-44
2023/01/26 04:54:52;;;;;;;;;;;;;;;;;;5052445;28;1729;-45
2023/01/26 04:57:23;;;;;;;;;;;;;;;;;;5052651;28;1706;-42
2023/01/26 04:59:51;;;;;;;;;;;;;;;;;;5052263;28;1973;-42
2023/01/26 05:02:19;;;;;;;;;;;;;;;;;;5052309;28;1613;-43
2023/01/26 05:04:47;;;;;;;;;;;;;;;;;;5053637;28;1739;-44
2023/01/26 05:07:14;;;;;;;;;;;;;;;;;;5052189;28;1924;-42
2023/01/26 05:09:43;;;;;;;;;;;;;;;;;;5052214;28;1824;-43
2023/01/26 05:12:33;;;;;;;;;;;;;;;;;;5053172;28;1720;-42
2023/01/26 05:15:26;;;;;;;;;;;;;;;;;;5044510;28;1962;-45
2023/01/26 05:18:23;;;;;;;;;;;;;;;;;;5051975;28;1954;-45
2023/01/26 05:20:59;;;;;;;;;;;;;;;;;;5052163;28;1982;-43
2023/01/26 05:23:36;;;;;;;;;;;;;;;;;;5051574;28;2097;-45
2023/01/26 05:26:22;;;;;;;;;;;;;;;;;;5053165;28;1678;-44
2023/01/26 05:29:09;;;;;;;;;;;;;;;;;;5052680;28;1700;-43
2023/01/26 05:31:37;;;;;;;;;;;;;;;;;;5052973;28;1998;-43
2023/01/26 05:34:05;;;;;;;;;;;;;;;;;;5035026;28;1783;-43
2023/01/26 05:36:35;;;;;;;;;;;;;;;;;;5035016;28;2162;-40
2023/01/26 05:39:03;;;;;;;;;;;;;;;;;;5035161;28;1906;-42
2023/01/26 05:41:31;;;;;;;;;;;;;;;;;;5035282;28;1767;-43
2023/01/26 05:44:28;;;;;;;;;;;;;;;;;;5034738;28;1654;-45
2023/01/26 05:47:02;;;;;;;;;;;;;;;;;;5052985;28;2248;-43
2023/01/26 05:49:30;;;;;;;;;;;;;;;;;;5034960;28;1992;-43
2023/01/26 05:51:57;;;;;;;;;;;;;;;;;;5034737;28;1992;-43
2023/01/26 05:54:24;;;;;;;;;;;;;;;;;;5052616;28;1709;-43
2023/01/26 05:56:53;;;;;;;;;;;;;;;;;;5034517;28;1764;-42
2023/01/26 05:59:21;;;;;;;;;;;;;;;;;;5034617;28;1934;-43
2023/01/26 06:01:48;;;;;;;;;;;;;;;;;;5034424;28;2139;-44
2023/01/26 06:04:18;;;;;;;;;;;;;;;;;;5052270;28;1829;-42
2023/01/26 06:06:57;;;;;;;;;;;;;;;;;;5034411;28;1450;-43
2023/01/26 06:09:30;;;;;;;;;;;;;;;;;;5052032;28;1851;-42
2023/01/26 06:12:12;;;;;;;;;;;;;;;;;;5034485;28;1664;-43
2023/01/26 06:14:54;;;;;;;;;;;;;;;;;;5052419;28;1815;-43
2023/01/26 06:17:25;;;;;;;;;;;;;;;;;;5034492;28;1924;-43
2023/01/26 06:19:57;;;;;;;;;;;;;;;;;;5034017;28;1902;-44
2023/01/26 06:22:24;;;;;;;;;;;;;;;;;;5034130;28;2165;-43
2023/01/26 06:24:52;;;;;;;;;;;;;;;;;;5034102;28;1509;-44
2023/01/26 06:27:19;;;;;;;;;;;;;;;;;;5025554;28;1710;-40
2023/01/26 06:29:48;;;;;;;;;;;;;;;;;;5014293;28;1948;-43
2023/01/26 06:32:16;;;;;;;;;;;;;;;;;;5013856;28;1783;-43
2023/01/26 06:34:46;;;;;;;;;;;;;;;;;;5014398;28;2093;-43
2023/01/26 06:37:14;;;;;;;;;;;;;;;;;;5014243;28;2130;-42
2023/01/26 06:39:42;;;;;;;;;;;;;;;;;;5014253;28;1981;-43
2023/01/26 06:42:11;;;;;;;;;;;;;;;;;;5014144;28;1555;-42
2023/01/26 06:44:39;;;;;;;;;;;;;;;;;;5031794;28;2091;-44
2023/01/26 06:47:06;;;;;;;;;;;;;;;;;;5014027;28;1788;-43
2023/01/26 06:49:34;;;;;;;;;;;;;;;;;;5013681;28;1594;-42
2023/01/26 06:52:03;;;;;;;;;;;;;;;;;;5014032;28;1984;-43
2023/01/26 06:54:47;;;;;;;;;;;;;;;;;;5013751;28;1933;-42
2023/01/26 06:57:52;;;;;;;;;;;;;;;;;;4989956;28;2006;-44
2023/01/26 07:00:39;;;;;;;;;;;;;;;;;;4990173;28;2071;-42
2023/01/26 07:03:27;;;;;;;;;;;;;;;;;;5020310;28;1677;-50
2023/01/26 07:05:54;;;;;;;;;;;;;;;;;;5031466;28;1687;-43
2023/01/26 07:08:21;;;;;;;;;;;;;;;;;;5031353;28;1769;-43
2023/01/26 07:10:49;;;;;;;;;;;;;;;;;;5031475;28;1821;-44
2023/01/26 07:13:16;;;;;;;;;;;;;;;;;;5030886;28;1807;-42
2023/01/26 07:15:43;;;;;;;;;;;;;;;;;;5031333;28;1938;-43
2023/01/26 07:18:10;;;;;;;;;;;;;;;;;;5050159;28;1887;-40
2023/01/26 07:20:38;;;;;;;;;;;;;;;;;;5048787;28;2100;-41
2023/01/26 07:23:05;;;;;;;;;;;;;;;;;;5062586;28;1555;-40
2023/01/26 07:25:32;;;;;;;;;;;;;;;;;;5066474;28;2040;-39
2023/01/26 07:27:59;;;;;;;;;;;;;;;;;;5051047;28;2047;-39
2023/01/26 07:30:26;;;;;;;;;;;;;;;;;;5050987;28;1537;-39
2023/01/26 07:32:53;;;;;;;;;;;;;;;;;;5050587;28;1951;-39
2023/01/26 07:35:20;;;;;;;;;;;;;;;;;;5051074;28;1352;-38
2023/01/26 07:37:48;;;;;;;;;;;;;;;;;;5051014;28;1726;-39
2023/01/26 07:40:15;;;;;;;;;;;;;;;;;;5042324;28;1998;-41
2023/01/26 07:42:42;;;;;;;;;;;;;;;;;;5031320;28;2137;-40
2023/01/26 07:45:38;;;;;;;;;;;;;;;;;;5030805;28;1811;-40
2023/01/26 07:48:05;;;;;;;;;;;;;;;;;;5031035;28;1289;-40
2023/01/26 07:50:33;;;;;;;;;;;;;;;;;;5030871;28;1773;-42
2023/01/26 07:53:00;;;;;;;;;;;;;;;;;;5030848;28;1770;-40
2023/01/26 07:55:27;;;;;;;;;;;;;;;;;;5030929;28;1579;-39
2023/01/26 07:57:56;;;;;;;;;;;;;;;;;;5030646;28;1981;-39
2023/01/26 08:00:23;;;;;;;;;;;;;;;;;;5030658;28;1906;-42
2023/01/26 08:02:51;;;;;;;;;;;;;;;;;;5030817;28;2154;-39
2023/01/26 08:05:18;;;;;;;;;;;;;;;;;;5030931;28;1675;-39
2023/01/26 08:07:45;;;;;;;;;;;;;;;;;;5030939;28;1101;-40
2023/01/26 08:10:13;;;;;;;;;;;;;;;;;;5030734;28;2018;-40
2023/01/26 08:12:40;;;;;;;;;;;;;;;;;;5031061;28;1731;-40
2023/01/26 08:15:08;;;;;;;;;;;;;;;;;;5030617;28;1730;-40
2023/01/26 08:17:37;;;;;;;;;;;;;;;;;;5030814;28;1517;-40
2023/01/26 08:20:04;;;;;;;;;;;;;;;;;;5030466;28;1979;-40
2023/01/26 08:22:32;;;;;;;;;;;;;;;;;;5030634;28;1996;-42
2023/01/26 08:25:02;;;;;;;;;;;;;;;;;;5038344;28;1938;-40
2023/01/26 08:27:29;;;;;;;;;;;;;;;;;;5053271;28;1929;-40
2023/01/26 08:29:58;;;;;;;;;;;;;;;;;;5054288;28;1810;-42
2023/01/26 08:32:27;;;;;;;;;;;;;;;;;;5053978;28;1635;-38
2023/01/26 08:34:55;;;;;;;;;;;;;;;;;;5052596;28;1629;-40
2023/01/26 08:37:22;;;;;;;;;;;;;;;;;;5053901;28;1294;-40
2023/01/26 08:39:50;;;;;;;;;;;;;;;;;;5054107;28;2352;-39
2023/01/26 08:42:18;;;;;;;;;;;;;;;;;;5053957;28;1643;-39
2023/01/26 08:44:48;;;;;;;;;;;;;;;;;;5053893;28;2037;-40
2023/01/26 08:47:15;;;;;;;;;;;;;;;;;;5054106;28;1961;-39
2023/01/26 08:49:42;;;;;;;;;;;;;;;;;;5053687;28;1715;-42
2023/01/26 08:52:09;;;;;;;;;;;;;;;;;;5053752;28;2097;-39
2023/01/26 08:54:37;;;;;;;;;;;;;;;;;;5052647;28;1839;-42
2023/01/26 08:57:04;;;;;;;;;;;;;;;;;;5053834;28;1724;-39
2023/01/26 08:59:31;;;;;;;;;;;;;;;;;;5052684;28;2038;-39
2023/01/26 09:01:58;;;;;;;;;;;;;;;;;;5053271;28;2246;-38
2023/01/26 09:04:26;;;;;;;;;;;;;;;;;;5053379;28;2131;-40
2023/01/26 09:06:53;;;;;;;;;;;;;;;;;;5053728;28;1963;-40
2023/01/26 09:09:20;;;;;;;;;;;;;;;;;;5053355;28;1944;-40
2023/01/26 09:11:47;;;;;;;;;;;;;;;;;;5053503;28;1848;-39
2023/01/26 09:14:14;;;;;;;;;;;;;;;;;;5053629;28;1573;-44
2023/01/26 09:16:42;;;;;;;;;;;;;;;;;;5053271;28;2299;-40
2023/01/26 09:19:09;;;;;;;;;;;;;;;;;;5052332;28;1893;-40
2023/01/26 09:21:38;;;;;;;;;;;;;;;;;;5053056;28;1914;-39
2023/01/26 09:24:06;;;;;;;;;;;;;;;;;;5052457;28;1840;-43
2023/01/26 09:26:33;;;;;;;;;;;;;;;;;;5053042;28;1334;-39
2023/01/26 09:29:01;;;;;;;;;;;;;;;;;;5053207;28;2344;-39
2023/01/26 09:31:28;;;;;;;;;;;;;;;;;;5053217;28;1600;-39
2023/01/26 09:33:55;;;;;;;;;;;;;;;;;;5052110;28;2090;-39
2023/01/26 09:36:23;;;;;;;;;;;;;;;;;;5052566;28;1763;-43
2023/01/26 09:38:51;;;;;;;;;;;;;;;;;;5052897;28;1738;-40
2023/01/26 09:41:22;;;;;;;;;;;;;;;;;;5052173;28;2003;-39
2023/01/26 09:43:57;;;;;;;;;;;;;;;;;;5052875;28;2006;-43
2023/01/26 09:46:42;;;;;;;;;;;;;;;;;;5052935;28;2092;-39
2023/01/26 09:49:32;;;;;;;;;;;;;;;;;;5052711;28;1793;-40
2023/01/26 09:52:23;;;;;;;;;;;;;;;;;;5040319;28;1848;-39
2023/01/26 09:54:52;;;;;;;;;;;;;;;;;;5040381;28;1736;-40
2023/01/26 09:57:22;;;;;;;;;;;;;;;;;;5052583;28;2176;-40
2023/01/26 09:59:57;;;;;;;;;;;;;;;;;;5050622;28;1573;-40
2023/01/26 10:02:27;;;;;;;;;;;;;;;;;;5051579;28;1973;-40
2023/01/26 10:05:00;;;;;;;;;;;;;;;;;;5051972;28;1228;-39
2023/01/26 10:07:27;;;;;;;;;;;;;;;;;;5052203;28;1995;-42
2023/01/26 10:09:55;;;;;;;;;;;;;;;;;;5052381;28;2123;-40
2023/01/26 10:12:25;;;;;;;;;;;;;;;;;;5052288;28;2170;-40
2023/01/26 10:15:01;;;;;;;;;;;;;;;;;;5052431;28;2107;-37
2023/01/26 10:17:40;;;;;;;;;;;;;;;;;;5051884;28;1883;-42
2023/01/26 10:20:16;;;;;;;;;;;;;;;;;;5052054;28;1818;-39
2023/01/26 10:22:55;;;;;;;;;;;;;;;;;;5052156;28;1995;-42
2023/01/26 10:25:43;;;;;;;;;;;;;;;;;;5052238;28;1566;-40
2023/01/26 10:28:12;;;;;;;;;;;;;;;;;;5046556;28;1995;-39
2023/01/26 10:30:40;;;;;;;;;;;;;;;;;;5052041;28;2010;-39
2023/01/26 10:33:33;;;;;;;;;;;;;;;;;;5051841;28;1819;-39
2023/01/26 10:36:02;;;;;;;;;;;;;;;;;;5047942;28;1874;-39
2023/01/26 10:38:33;;;;;;;;;;;;;;;;;;5051817;28;1947;-40
2023/01/26 10:41:04;;;;;;;;;;;;;;;;;;5051607;28;1898;-38
2023/01/26 10:43:34;;;;;;;;;;;;;;;;;;5051648;28;1816;-40
2023/01/26 10:46:02;;;;;;;;;;;;;;;;;;5051592;28;1824;-39
2023/01/26 10:48:33;;;;;;;;;;;;;;;;;;5050949;28;1413;-39
2023/01/26 10:51:29;;;;;;;;;;;;;;;;;;5051640;28;2100;-40
2023/01/26 10:54:14;;;;;;;;;;;;;;;;;;5031077;28;1687;-39
2023/01/26 10:56:55;;;;;;;;;;;;;;;;;;5051528;28;1649;-39
2023/01/26 10:59:28;;;;;;;;;;;;;;;;;;5051414;28;1780;-40
2023/01/26 11:01:59;;;;;;;;;;;;;;;;;;5051576;28;2218;-40
2023/01/26 11:04:27;;;;;;;;;;;;;;;;;;5051213;28;2025;-39
2023/01/26 11:06:54;;;;;;;;;;;;;;;;;;5051410;28;1896;-39
2023/01/26 11:09:27;;;;;;;;;;;;;;;;;;5051429;28;1654;-39
2023/01/26 11:12:04;;;;;;;;;;;;;;;;;;5051433;28;1997;-39
2023/01/26 11:14:33;;;;;;;;;;;;;;;;;;5051267;28;1220;-43
2023/01/26 11:17:08;;;;;;;;;;;;;;;;;;5051169;28;2115;-40
2023/01/26 11:19:42;;;;;;;;;;;;;;;;;;5051110;28;1876;-43
2023/01/26 11:22:18;;;;;;;;;;;;;;;;;;5033384;28;2086;-44
2023/01/26 11:24:45;;;;;;;;;;;;;;;;;;5051021;28;1673;-43
2023/01/26 11:27:15;;;;;;;;;;;;;;;;;;5050903;28;2094;-44
2023/01/26 11:29:54;;;;;;;;;;;;;;;;;;5051062;28;1831;-45
2023/01/26 11:32:28;;;;;;;;;;;;;;;;;;5050816;28;1971;-43
2023/01/26 11:34:55;;;;;;;;;;;;;;;;;;5051322;28;1670;-44
2023/01/26 11:37:23;;;;;;;;;;;;;;;;;;5050943;28;1753;-43
2023/01/26 11:40:25;;;;;;;;;;;;;;;;;;5050909;28;1859;-44
2023/01/26 11:43:05;;;;;;;;;;;;;;;;;;5008732;28;1964;-43
2023/01/26 11:45:38;;;;;;;;;;;;;;;;;;5050808;28;1818;-43
2023/01/26 11:48:14;;;;;;;;;;;;;;;;;;5050992;28;1415;-44
2023/01/26 11:50:53;;;;;;;;;;;;;;;;;;5050917;28;1455;-46
2023/01/26 11:53:37;;;;;;;;;;;;;;;;;;5050623;28;1922;-45
2023/01/26 11:56:27;;;;;;;;;;;;;;;;;;5050880;28;1792;-43
2023/01/26 11:58:59;;;;;;;;;;;;;;;;;;5052915;28;2150;-43
2023/01/26 12:01:40;;;;;;;;;;;;;;;;;;5055072;28;2064;-43
2023/01/26 12:04:16;;;;;;;;;;;;;;;;;;5053820;28;1814;-43
2023/01/26 12:06:45;;;;;;;;;;;;;;;;;;5054566;28;1892;-44
2023/01/26 12:09:17;;;;;;;;;;;;;;;;;;5054561;28;1244;-43
2023/01/26 12:11:59;;;;;;;;;;;;;;;;;;5054665;28;1853;-43
2023/01/26 12:14:26;;;;;;;;;;;;;;;;;;5054550;28;1989;-41
2023/01/26 12:17:12;;;;;;;;;;;;;;;;;;5054704;28;1785;-44
2023/01/26 12:19:51;;;;;;;;;;;;;;;;;;5054390;28;1961;-43
2023/01/26 12:22:29;;;;;;;;;;;;;;;;;;5054354;28;2034;-45
2023/01/26 12:25:19;;;;;;;;;;;;;;;;;;5054574;28;1738;-44
2023/01/26 12:28:09;;;;;;;;;;;;;;;;;;5053579;28;1321;-42
2023/01/26 12:30:48;;;;;;;;;;;;;;;;;;5052234;28;1499;-45
2023/01/26 12:33:16;;;;;;;;;;;;;;;;;;5049145;28;1438;-43
2023/01/26 12:35:49;;;;;;;;;;;;;;;;;;5054192;28;1772;-45
2023/01/26 12:38:36;;;;;;;;;;;;;;;;;;5053961;28;2006;-44
2023/01/26 12:41:07;;;;;;;;;;;;;;;;;;5020325;28;2365;-46
2023/01/26 12:43:38;;;;;;;;;;;;;;;;;;5054296;28;1721;-42
2023/01/26 12:46:06;;;;;;;;;;;;;;;;;;5054033;28;1615;-45
2023/01/26 12:48:43;;;;;;;;;;;;;;;;;;5054255;28;1699;-47
2023/01/26 12:51:18;;;;;;;;;;;;;;;;;;5053720;28;1982;-46
2023/01/26 12:53:51;;;;;;;;;;;;;;;;;;5053762;28;1700;-47
2023/01/26 12:56:22;;;;;;;;;;;;;;;;;;5053787;28;1716;-45
2023/01/26 12:58:50;;;;;;;;;;;;;;;;;;5053673;28;2202;-45
2023/01/26 13:01:22;;;;;;;;;;;;;;;;;;5053949;28;1916;-42
2023/01/26 13:03:52;;;;;;;;;;;;;;;;;;5053551;28;1994;-43
2023/01/26 13:06:21;;;;;;;;;;;;;;;;;;5053504;28;1811;-43
2023/01/26 13:08:59;;;;;;;;;;;;;;;;;;5053473;28;1840;-44
2023/01/26 13:11:44;;;;;;;;;;;;;;;;;;5052631;28;2001;-43
2023/01/26 13:14:25;;;;;;;;;;;;;;;;;;5053512;28;2072;-47
2023/01/26 13:16:52;;;;;;;;;;;;;;;;;;5053333;28;1850;-47
2023/01/26 13:19:34;;;;;;;;;;;;;;;;;;5053360;28;1822;-46
2023/01/26 13:22:02;;;;;;;;;;;;;;;;;;5053561;28;1979;-44
2023/01/26 13:24:29;;;;;;;;;;;;;;;;;;5053150;28;2064;-48
2023/01/26 13:26:57;;;;;;;;;;;;;;;;;;5053115;28;1580;-44
2023/01/26 13:29:24;;;;;;;;;;;;;;;;;;5053198;28;2189;-47
2023/01/26 13:31:55;;;;;;;;;;;;;;;;;;5053329;28;1784;-45
2023/01/26 13:34:28;;;;;;;;;;;;;;;;;;5053046;28;1518;-44
2023/01/26 13:36:59;;;;;;;;;;;;;;;;;;5053087;28;1743;-45
2023/01/26 13:39:28;;;;;;;;;;;;;;;;;;5053004;28;1982;-44
2023/01/26 13:41:56;;;;;;;;;;;;;;;;;;5052853;28;1962;-44
2023/01/26 13:44:30;;;;;;;;;;;;;;;;;;5052931;28;1492;-45
2023/01/26 13:47:00;;;;;;;;;;;;;;;;;;5052970;28;2034;-48
2023/01/26 13:49:41;;;;;;;;;;;;;;;;;;5052905;28;1564;-45
2023/01/26 13:52:25;;;;;;;;;;;;;;;;;;5052812;28;2055;-47
2023/01/26 13:54:56;;;;;;;;;;;;;;;;;;5052684;28;1521;-45
2023/01/26 13:57:28;;;;;;;;;;;;;;;;;;5052672;28;1910;-48
2023/01/26 13:59:58;;;;;;;;;;;;;;;;;;5052746;28;2155;-46
2023/01/26 14:02:26;;;;;;;;;;;;;;;;;;5052450;28;2009;-46
2023/01/26 14:04:54;;;;;;;;;;;;;;;;;;5052353;28;1417;-43
2023/01/26 14:07:24;;;;;;;;;;;;;;;;;;5052459;28;1853;-46
2023/01/26 14:09:52;;;;;;;;;;;;;;;;;;5052428;28;1746;-46
2023/01/26 14:12:45;;;;;;;;;;;;;;;;;;5052470;28;1715;-43
2023/01/26 14:15:22;;;;;;;;;;;;;;;;;;5049040;28;1770;-46
2023/01/26 14:17:51;;;;;;;;;;;;;;;;;;5052351;28;2074;-44
2023/01/26 14:20:24;;;;;;;;;;;;;;;;;;5052233;28;1724;-48
2023/01/26 14:23:02;;;;;;;;;;;;;;;;;;5051853;28;1911;-43
2023/01/26 14:25:29;;;;;;;;;;;;;;;;;;5052063;28;1508;-46
2023/01/26 14:27:56;;;;;;;;;;;;;;;;;;5051876;28;2042;-46
2023/01/26 14:30:32;;;;;;;;;;;;;;;;;;5052041;28;1977;-44
2023/01/26 14:33:13;;;;;;;;;;;;;;;;;;5051684;28;1621;-47
2023/01/26 14:35:41;;;;;;;;;;;;;;;;;;5052010;28;1949;-43
2023/01/26 14:38:08;;;;;;;;;;;;;;;;;;5051892;28;1890;-44
2023/01/26 14:40:42;;;;;;;;;;;;;;;;;;5051986;28;1624;-44
2023/01/26 14:43:11;;;;;;;;;;;;;;;;;;5051617;28;1925;-44
2023/01/26 14:45:39;;;;;;;;;;;;;;;;;;5051915;28;1763;-46
2023/01/26 14:48:08;;;;;;;;;;;;;;;;;;5051843;28;1618;-46
2023/01/26 14:50:36;;;;;;;;;;;;;;;;;;5051687;28;1988;-46
2023/01/26 14:53:04;;;;;;;;;;;;;;;;;;5051740;28;1691;-46
2023/01/26 14:55:33;;;;;;;;;;;;;;;;;;5051523;28;2234;-46
2023/01/26 14:58:02;;;;;;;;;;;;;;;;;;5051476;28;1906;-46
2023/01/26 15:00:31;;;;;;;;;;;;;;;;;;5051475;28;1789;-47
2023/01/26 15:03:00;;;;;;;;;;;;;;;;;;5051357;28;1908;-44
2023/01/26 15:05:32;;;;;;;;;;;;;;;;;;5051398;28;1840;-44
2023/01/26 15:08:01;;;;;;;;;;;;;;;;;;5033554;28;1456;-46
2023/01/26 15:13:54;;;;;;;;;;;;;;;;;;4989710;28;2046;-46
2023/01/26 15:16:23;;;;;;;;;;;;;;;;;;4989820;28;2097;-42
2023/01/26 15:19:00;;;;;;;;;;;;;;;;;;5028798;28;1775;-45
2023/01/26 15:21:32;;;;;;;;;;;;;;;;;;5051000;28;1730;-43
2023/01/26 15:24:00;;;;;;;;;;;;;;;;;;5050856;28;1823;-46
2023/01/26 15:26:28;;;;;;;;;;;;;;;;;;5049390;28;1993;-43
2023/01/26 15:28:56;;;;;;;;;;;;;;;;;;5031095;28;1559;-43
2023/01/26 15:31:27;;;;;;;;;;;;;;;;;;5031083;28;2035;-44
2023/01/26 15:33:57;;;;;;;;;;;;;;;;;;5030484;28;1417;-42
2023/01/26 15:36:29;;;;;;;;;;;;;;;;;;5031102;28;1938;-49
2023/01/26 15:39:01;;;;;;;;;;;;;;;;;;5030977;28;2123;-46
2023/01/26 15:41:29;;;;;;;;;;;;;;;;;;5030979;28;1858;-47
2023/01/26 15:43:56;;;;;;;;;;;;;;;;;;5030978;28;1973;-50
2023/01/26 15:46:24;;;;;;;;;;;;;;;;;;5031002;28;1744;-45
2023/01/26 15:48:51;;;;;;;;;;;;;;;;;;5030705;28;1871;-41
2023/01/26 15:51:18;;;;;;;;;;;;;;;;;;5031110;28;1912;-43
2023/01/26 15:53:46;;;;;;;;;;;;;;;;;;5030709;28;1978;-43
2023/01/26 15:56:14;;;;;;;;;;;;;;;;;;5013697;28;1848;-43
2023/01/26 15:58:42;;;;;;;;;;;;;;;;;;5031082;28;1837;-41
2023/01/26 16:01:13;;;;;;;;;;;;;;;;;;5030733;28;2215;-44
2023/01/26 16:03:41;;;;;;;;;;;;;;;;;;5031054;28;2028;-44
2023/01/26 16:06:15;;;;;;;;;;;;;;;;;;5030849;28;1860;-44
2023/01/26 16:08:42;;;;;;;;;;;;;;;;;;5030884;28;1952;-43
2023/01/26 16:11:10;;;;;;;;;;;;;;;;;;5030607;28;1495;-44
2023/01/26 16:13:39;;;;;;;;;;;;;;;;;;5030583;28;1872;-42
2023/01/26 16:16:08;;;;;;;;;;;;;;;;;;5030735;28;2070;-42
2023/01/26 16:18:38;;;;;;;;;;;;;;;;;;5030685;28;1702;-43
2023/01/26 16:21:19;;;;;;;;;;;;;;;;;;5030607;28;1904;-42
2023/01/26 16:23:46;;;;;;;;;;;;;;;;;;5030623;28;1973;-42
2023/01/26 16:26:15;;;;;;;;;;;;;;;;;;5030715;28;1746;-45
2023/01/26 16:28:43;;;;;;;;;;;;;;;;;;5030697;28;1859;-42
2023/01/26 16:31:14;;;;;;;;;;;;;;;;;;5030593;28;1609;-45
2023/01/26 16:33:42;;;;;;;;;;;;;;;;;;5030666;28;1855;-43
2023/01/26 16:36:10;;;;;;;;;;;;;;;;;;5030463;28;1717;-42
2023/01/26 16:38:37;;;;;;;;;;;;;;;;;;5030387;28;1476;-40
2023/01/26 16:41:05;;;;;;;;;;;;;;;;;;5030441;28;2002;-43
2023/01/26 16:43:32;;;;;;;;;;;;;;;;;;5030498;28;1907;-42
2023/01/26 16:45:59;;;;;;;;;;;;;;;;;;5032509;28;1755;-42
2023/01/26 16:48:30;;;;;;;;;;;;;;;;;;5033995;28;1608;-43
2023/01/26 16:50:57;;;;;;;;;;;;;;;;;;5033741;28;1351;-43
2023/01/26 16:53:26;;;;;;;;;;;;;;;;;;5033775;28;2200;-43
2023/01/26 16:55:54;;;;;;;;;;;;;;;;;;5033901;28;2246;-44
2023/01/26 16:58:24;;;;;;;;;;;;;;;;;;5033813;28;1789;-43
2023/01/26 17:00:53;;;;;;;;;;;;;;;;;;5033902;28;1797;-44
2023/01/26 17:03:20;;;;;;;;;;;;;;;;;;5033551;28;1910;-42
2023/01/26 17:05:49;;;;;;;;;;;;;;;;;;5033864;28;1872;-43
2023/01/26 17:08:16;;;;;;;;;;;;;;;;;;5033819;28;1782;-42
2023/01/26 17:10:43;;;;;;;;;;;;;;;;;;5033572;28;1867;-43
2023/01/26 17:13:27;;;;;;;;;;;;;;;;;;5033387;28;2052;-43
2023/01/26 17:15:55;;;;;;;;;;;;;;;;;;5033540;28;1944;-43
2023/01/26 17:18:22;;;;;;;;;;;;;;;;;;5033452;28;1535;-42
2023/01/26 17:20:49;;;;;;;;;;;;;;;;;;5033553;28;2167;-41
2023/01/26 17:23:17;;;;;;;;;;;;;;;;;;5033542;28;1910;-41
2023/01/26 17:25:44;;;;;;;;;;;;;;;;;;5033348;28;2108;-42
2023/01/26 17:28:11;;;;;;;;;;;;;;;;;;5049085;28;1900;-44
2023/01/26 17:30:46;;;;;;;;;;;;;;;;;;5052677;28;1259;-42
2023/01/26 17:33:35;;;;;;;;;;;;;;;;;;5052730;28;2039;-41
2023/01/26 17:36:04;;;;;;;;;;;;;;;;;;5052938;28;1963;-41
2023/01/26 17:38:31;;;;;;;;;;;;;;;;;;5022446;28;12471;-42
2023/01/26 17:40:58;;;;;;;;;;;;;;;;;;5052677;28;1805;-42
2023/01/26 17:43:25;;;;;;;;;;;;;;;;;;5052831;28;1919;-41
2023/01/26 17:46:00;;;;;;;;;;;;;;;;;;5052773;28;1546;-41
2023/01/26 17:48:28;;;;;;;;;;;;;;;;;;5052500;28;2508;-42
2023/01/26 17:50:55;;;;;;;;;;;;;;;;;;5052938;28;2016;-44
2023/01/26 17:53:26;;;;;;;;;;;;;;;;;;5052685;28;1682;-42
2023/01/26 17:55:54;;;;;;;;;;;;;;;;;;5052185;28;1958;-44
2023/01/26 17:58:21;;;;;;;;;;;;;;;;;;5051835;28;1776;-43
2023/01/26 18:00:48;;;;;;;;;;;;;;;;;;5053003;28;2154;-41
2023/01/26 18:03:15;;;;;;;;;;;;;;;;;;5052666;28;1921;-42
2023/01/26 18:05:52;;;;;;;;;;;;;;;;;;5051953;28;2032;-42
2023/01/26 18:08:20;;;;;;;;;;;;;;;;;;5052573;28;1778;-42
2023/01/26 18:10:47;;;;;;;;;;;;;;;;;;5052310;28;1581;-42
2023/01/26 18:13:14;;;;;;;;;;;;;;;;;;5052328;28;1435;-41
2023/01/26 18:15:43;;;;;;;;;;;;;;;;;;5052277;28;1872;-40
2023/01/26 18:18:11;;;;;;;;;;;;;;;;;;5052168;28;1489;-42
2023/01/26 18:20:39;;;;;;;;;;;;;;;;;;5052143;28;1634;-43